»·PEaware :: N420MD KLAS-KAPC

N420MD :: KLAS-KAPC

FLIGHT INFORMATION

Flight Status: Arrived
Operator: Privately registered:
United States
More flights under this callsign
Pilot: Anonymous 1753 (1753)
Aircraft: CANADAIR CL-600 CHALLENGER
(CL60)
More flights by this aircraft type
Origin: KLAS Harry Reid Intl
United States
Destination: KAPC Napa Co
United States
More flights between these airports :: More routes between these airports
Route: JOHKR3 KENNO LIN REJOY
File this flight plan on PilotEdge
Remarks: RMK / SIMBRIEF
Altitude:
(Current/Filed)
40,000ft
Speed:
(Current/Filed)
463kts
Departed: 16-Nov-23 02:05 PM
Arrived: 16-Nov-23 03:19 PM
Distance/Time
Traveled:
364nm/1:14
Distance/Time
To Go:
Arrived

Flight Plot

Page will automatically refresh every two minutes.

Flight plan parsing failed; only flown route is shown


Map Options




Map Legend


Flown Route
Filed Route
Departure Airport
Arrival Airport
Navaid (VOR, NDB)
Fix

Horizontal Profiles

Position Reports

Time Latitude Longitude Heading Altitude Ground
Speed
16-Nov-23 13:18 36.082947 -115.170035 89 2167ft 0kts
16-Nov-23 13:19 36.082947 -115.170035 89 2167ft 0kts
16-Nov-23 13:20 36.082947 -115.170035 89 2167ft 0kts
16-Nov-23 13:21 36.082947 -115.170035 89 2167ft 0kts
16-Nov-23 13:22 36.082947 -115.170035 89 2167ft 0kts
16-Nov-23 13:23 36.082947 -115.170035 89 2167ft 0kts
16-Nov-23 13:24 36.082947 -115.170035 89 2167ft 0kts
16-Nov-23 13:25 36.082947 -115.170035 89 2167ft 0kts
16-Nov-23 13:26 36.082947 -115.170035 89 2167ft 0kts
16-Nov-23 13:28 36.082947 -115.170035 89 2167ft 0kts
16-Nov-23 13:29 36.082947 -115.170035 89 2167ft 0kts
16-Nov-23 13:30 36.082947 -115.170035 89 2167ft 0kts
16-Nov-23 13:31 36.082947 -115.170035 89 2167ft 0kts
16-Nov-23 13:32 36.082947 -115.170035 89 2167ft 0kts
16-Nov-23 13:33 36.082947 -115.170035 89 2167ft 0kts
16-Nov-23 13:34 36.082947 -115.170035 89 2167ft 0kts
16-Nov-23 13:35 36.082947 -115.170035 89 2167ft 0kts
16-Nov-23 13:36 36.082947 -115.170035 89 2167ft 0kts
16-Nov-23 13:37 36.082947 -115.170035 89 2167ft 0kts
16-Nov-23 13:38 36.082947 -115.170035 89 2167ft 0kts
16-Nov-23 13:39 36.082947 -115.170035 89 2167ft 0kts
16-Nov-23 13:40 36.082947 -115.170035 89 2167ft 0kts
16-Nov-23 13:41 36.082947 -115.170035 89 2167ft 0kts
16-Nov-23 13:42 36.082947 -115.170035 89 2167ft 0kts
16-Nov-23 13:43 36.082947 -115.170035 89 2167ft 0kts
16-Nov-23 13:44 36.082947 -115.170035 89 2167ft 0kts
16-Nov-23 13:45 36.082947 -115.170035 89 2167ft 0kts
16-Nov-23 13:46 36.082947 -115.170035 89 2167ft 0kts
16-Nov-23 13:47 36.082947 -115.170035 89 2167ft 0kts
16-Nov-23 13:48 36.082947 -115.170035 89 2167ft 0kts
16-Nov-23 13:49 36.082947 -115.170035 89 2167ft 0kts
16-Nov-23 13:50 36.082947 -115.170035 89 2167ft 0kts
16-Nov-23 13:51 36.082947 -115.170035 89 2167ft 0kts
16-Nov-23 13:52 36.082947 -115.170035 89 2167ft 0kts
16-Nov-23 13:53 36.082947 -115.170035 89 2167ft 0kts
16-Nov-23 13:54 36.082947 -115.170035 89 2167ft 0kts
16-Nov-23 13:54 36.082947 -115.170035 89 2167ft 0kts
16-Nov-23 13:56 36.082947 -115.170035 89 2167ft 0kts
16-Nov-23 13:57 36.082947 -115.170035 89 2167ft 0kts
16-Nov-23 13:58 36.083252 -115.168938 45 2165ft 10kts
16-Nov-23 13:59 36.086617 -115.166338 22 2149ft 14kts
16-Nov-23 13:59 36.091467 -115.163519 22 2125ft 31kts
16-Nov-23 14:01 36.099708 -115.158182 70 2091ft 17kts
16-Nov-23 14:02 36.099840 -115.157612 87 2090ft 0kts
16-Nov-23 14:02 36.099841 -115.157599 87 2090ft 1kts
16-Nov-23 14:03 36.099842 -115.157571 87 2090ft 1kts
16-Nov-23 14:05 36.095321 -115.158940 204 2102ft 116kts
16-Nov-23 14:06 36.037546 -115.189938 202 5527ft 268kts
16-Nov-23 14:06 35.982933 -115.217559 200 6490ft 234kts
16-Nov-23 14:07 35.933691 -115.277009 230 7937ft 274kts
16-Nov-23 14:08 35.889796 -115.356111 242 9897ft 296kts
16-Nov-23 14:09 35.886150 -115.461276 270 11204ft 339kts
16-Nov-23 14:11 35.889554 -115.604178 270 11942ft 376kts
16-Nov-23 14:11 35.891648 -115.711179 268 16125ft 375kts
16-Nov-23 14:12 35.893874 -115.840397 267 20353ft 382kts
16-Nov-23 14:13 35.917454 -115.969715 304 23489ft 429kts
16-Nov-23 14:14 36.004429 -116.074299 306 26481ft 438kts
16-Nov-23 14:15 36.092599 -116.182261 303 28709ft 447kts
16-Nov-23 14:16 36.180853 -116.291563 302 30227ft 455kts
16-Nov-23 14:17 36.270922 -116.403798 303 31307ft 460kts
16-Nov-23 14:18 36.363950 -116.515072 304 32268ft 464kts
16-Nov-23 14:19 36.457785 -116.626281 305 33195ft 464kts
16-Nov-23 14:20 36.552997 -116.734437 305 34143ft 465kts
16-Nov-23 14:21 36.649047 -116.843943 305 34892ft 465kts
16-Nov-23 14:22 36.745762 -116.951342 312 36199ft 464kts
16-Nov-23 14:23 36.862397 -117.029264 320 37301ft 478kts
16-Nov-23 14:24 36.979878 -117.104232 320 38257ft 477kts
16-Nov-23 14:25 37.094633 -117.178058 321 40129ft 451kts
16-Nov-23 14:26 37.205641 -117.252261 314 40577ft 444kts
16-Nov-23 14:27 37.280983 -117.362924 289 40561ft 405kts
16-Nov-23 14:28 37.327728 -117.489279 279 40567ft 397kts
16-Nov-23 14:29 37.361416 -117.623828 278 40599ft 406kts
16-Nov-23 14:30 37.394060 -117.760782 278 40598ft 407kts
16-Nov-23 14:31 37.425741 -117.897708 278 40595ft 407kts
16-Nov-23 14:32 37.456837 -118.034700 278 40566ft 408kts
16-Nov-23 14:33 37.487629 -118.172267 278 40596ft 407kts
16-Nov-23 14:34 37.518306 -118.311068 278 40704ft 413kts
16-Nov-23 14:35 37.549018 -118.451009 278 40710ft 415kts
16-Nov-23 14:36 37.579466 -118.590693 278 40726ft 415kts
16-Nov-23 14:37 37.610430 -118.733948 278 40097ft 422kts
16-Nov-23 14:38 37.640919 -118.875530 278 39223ft 416kts
16-Nov-23 14:39 37.671012 -119.016475 277 38241ft 417kts
16-Nov-23 14:40 37.701129 -119.158419 277 37206ft 416kts
16-Nov-23 14:41 37.730766 -119.298979 278 35991ft 420kts
16-Nov-23 14:42 37.760640 -119.441599 278 34474ft 423kts
16-Nov-23 14:43 37.790475 -119.584799 278 32550ft 417kts
16-Nov-23 14:44 37.819543 -119.725843 279 30301ft 410kts
16-Nov-23 14:45 37.847816 -119.863611 279 28450ft 398kts
16-Nov-23 14:46 37.874972 -119.996865 280 26926ft 391kts
16-Nov-23 14:47 37.901962 -120.130125 280 25435ft 387kts
16-Nov-23 14:48 37.928275 -120.260904 281 24071ft 379kts
16-Nov-23 14:49 37.954174 -120.390308 281 23983ft 382kts
16-Nov-23 14:50 37.980248 -120.521435 281 23984ft 383kts
16-Nov-23 14:51 38.006194 -120.652715 281 23968ft 383kts
16-Nov-23 14:52 38.031291 -120.780449 281 21734ft 373kts
16-Nov-23 14:53 38.056136 -120.907799 281 20125ft 372kts
16-Nov-23 14:54 38.078494 -121.033170 276 17636ft 358kts
16-Nov-23 14:55 38.093174 -121.153672 276 15687ft 335kts
16-Nov-23 14:56 38.107047 -121.268376 276 13675ft 320kts
16-Nov-23 14:57 38.120162 -121.377525 276 11681ft 310kts
16-Nov-23 14:58 38.132834 -121.483627 276 10180ft 289kts
16-Nov-23 14:59 38.144782 -121.584912 276 10159ft 291kts
16-Nov-23 15:00 38.156709 -121.686437 275 10156ft 292kts
16-Nov-23 15:01 38.160048 -121.785993 246 9856ft 272kts
16-Nov-23 15:02 38.129636 -121.871957 242 8367ft 264kts
16-Nov-23 15:03 38.098782 -121.956193 242 6802ft 259kts
16-Nov-23 15:04 38.068534 -122.038460 242 5240ft 258kts
16-Nov-23 15:05 38.038448 -122.120035 243 4085ft 244kts
16-Nov-23 15:06 38.011821 -122.192171 243 4079ft 199kts
16-Nov-23 15:07 37.988921 -122.253927 243 4068ft 186kts
16-Nov-23 15:08 37.967179 -122.312459 243 4062ft 179kts
16-Nov-23 15:09 37.946055 -122.369282 243 4062ft 177kts
16-Nov-23 15:10 37.951350 -122.417768 1 4053ft 161kts
16-Nov-23 15:11 37.986798 -122.389037 24 4063ft 157kts
16-Nov-23 15:12 38.028541 -122.371221 24 3773ft 156kts
16-Nov-23 15:13 38.066613 -122.352864 23 2959ft 136kts
16-Nov-23 15:14 38.103515 -122.335040 23 2179ft 136kts
16-Nov-23 15:15 38.136698 -122.318271 22 1519ft 129kts
16-Nov-23 15:16 38.169344 -122.303368 22 849ft 139kts
16-Nov-23 15:17 38.205634 -122.286345 21 131ft 136kts
16-Nov-23 15:18 38.222916 -122.277996 53 28ft 7kts
16-Nov-23 15:19 38.220967 -122.276521 202 27ft 13kts
16-Nov-23 15:20 38.218676 -122.274705 156 31ft 4kts
16-Nov-23 15:21 38.218639 -122.274683 155 31ft 0kts
16-Nov-23 15:22 38.218639 -122.274683 155 31ft 0kts
16-Nov-23 15:23 38.218639 -122.274683 155 31ft 0kts
16-Nov-23 15:24 38.218639 -122.274683 155 31ft 0kts
16-Nov-23 15:25 38.218639 -122.274683 155 31ft 0kts
16-Nov-23 15:26 38.218639 -122.274683 155 31ft 0kts
16-Nov-23 15:27 38.218639 -122.274683 155 31ft 0kts
16-Nov-23 15:28 38.218639 -122.274683 155 31ft 0kts

Navigation Log

Ident Type
Flight plan parsing failed, navigation log unavailable